sensor_id;sensor_type;location;lat;lon;timestamp;temperature;humidity
46652;DHT22;32377;52.182;5.398;2022-11-15T00:02:08;6.70;99.90
46652;DHT22;32377;52.182;5.398;2022-11-15T00:04:33;6.60;99.90
46652;DHT22;32377;52.182;5.398;2022-11-15T00:06:59;6.70;99.90
46652;DHT22;32377;52.182;5.398;2022-11-15T00:09:24;6.70;99.90
46652;DHT22;32377;52.182;5.398;2022-11-15T00:11:51;6.60;99.90
46652;DHT22;32377;52.182;5.398;2022-11-15T00:14:17;6.60;99.90
46652;DHT22;32377;52.182;5.398;2022-11-15T00:16:43;6.70;99.90
46652;DHT22;32377;52.182;5.398;2022-11-15T00:19:09;6.70;99.90
46652;DHT22;32377;52.182;5.398;2022-11-15T00:21:34;6.70;99.90
46652;DHT22;32377;52.182;5.398;2022-11-15T00:24:00;6.80;99.90
46652;DHT22;32377;52.182;5.398;2022-11-15T00:26:25;6.70;99.90
46652;DHT22;32377;52.182;5.398;2022-11-15T00:28:52;6.80;99.90
46652;DHT22;32377;52.182;5.398;2022-11-15T00:31:18;6.80;99.90
46652;DHT22;32377;52.182;5.398;2022-11-15T00:33:44;6.80;99.90
46652;DHT22;32377;52.182;5.398;2022-11-15T00:36:09;6.90;99.90
46652;DHT22;32377;52.182;5.398;2022-11-15T00:38:39;6.80;99.90
46652;DHT22;32377;52.182;5.398;2022-11-15T00:41:06;6.90;99.90
46652;DHT22;32377;52.182;5.398;2022-11-15T00:43:32;6.90;99.90
46652;DHT22;32377;52.182;5.398;2022-11-15T00:45:58;6.80;99.90
46652;DHT22;32377;52.182;5.398;2022-11-15T00:48:24;6.90;99.90
46652;DHT22;32377;52.182;5.398;2022-11-15T00:50:50;6.90;99.90
46652;DHT22;32377;52.182;5.398;2022-11-15T00:53:16;6.90;99.90
46652;DHT22;32377;52.182;5.398;2022-11-15T00:55:42;6.90;99.90
46652;DHT22;32377;52.182;5.398;2022-11-15T00:58:08;6.90;99.90
46652;DHT22;32377;52.182;5.398;2022-11-15T01:00:33;7.00;99.90
46652;DHT22;32377;52.182;5.398;2022-11-15T01:03:00;7.00;99.90
46652;DHT22;32377;52.182;5.398;2022-11-15T01:05:27;7.00;99.90
46652;DHT22;32377;52.182;5.398;2022-11-15T01:07:54;7.00;99.90
46652;DHT22;32377;52.182;5.398;2022-11-15T01:10:20;7.00;99.90
46652;DHT22;32377;52.182;5.398;2022-11-15T01:12:46;7.00;99.90
46652;DHT22;32377;52.182;5.398;2022-11-15T01:15:11;7.00;99.90
46652;DHT22;32377;52.182;5.398;2022-11-15T01:17:37;7.00;99.90
46652;DHT22;32377;52.182;5.398;2022-11-15T01:20:03;7.00;99.90
46652;DHT22;32377;52.182;5.398;2022-11-15T01:22:29;7.10;99.90
46652;DHT22;32377;52.182;5.398;2022-11-15T01:24:54;7.10;99.90
46652;DHT22;32377;52.182;5.398;2022-11-15T01:27:20;7.10;99.90
46652;DHT22;32377;52.182;5.398;2022-11-15T01:29:45;7.20;99.90
46652;DHT22;32377;52.182;5.398;2022-11-15T01:32:11;7.20;99.90
46652;DHT22;32377;52.182;5.398;2022-11-15T01:34:37;7.30;99.90
46652;DHT22;32377;52.182;5.398;2022-11-15T01:37:03;7.20;99.90
46652;DHT22;32377;52.182;5.398;2022-11-15T01:39:28;7.30;99.90
46652;DHT22;32377;52.182;5.398;2022-11-15T01:41:54;7.30;99.90
46652;DHT22;32377;52.182;5.398;2022-11-15T01:44:38;7.30;99.90
46652;DHT22;32377;52.182;5.398;2022-11-15T01:47:29;7.40;99.90
46652;DHT22;32377;52.182;5.398;2022-11-15T01:50:26;7.40;99.90
46652;DHT22;32377;52.182;5.398;2022-11-15T01:52:50;7.40;99.90
46652;DHT22;32377;52.182;5.398;2022-11-15T01:55:20;7.40;99.90
46652;DHT22;32377;52.182;5.398;2022-11-15T01:57:50;7.50;99.90
46652;DHT22;32377;52.182;5.398;2022-11-15T02:00:17;7.50;99.90
46652;DHT22;32377;52.182;5.398;2022-11-15T02:02:43;7.50;99.90
46652;DHT22;32377;52.182;5.398;2022-11-15T02:05:09;7.60;99.90
46652;DHT22;32377;52.182;5.398;2022-11-15T02:07:35;7.60;99.90
46652;DHT22;32377;52.182;5.398;2022-11-15T02:10:11;7.60;99.90
46652;DHT22;32377;52.182;5.398;2022-11-15T02:12:38;7.70;99.90
46652;DHT22;32377;52.182;5.398;2022-11-15T02:15:05;7.70;99.90
46652;DHT22;32377;52.182;5.398;2022-11-15T02:17:57;7.70;99.90
46652;DHT22;32377;52.182;5.398;2022-11-15T02:29:07;7.80;99.90
46652;DHT22;32377;52.182;5.398;2022-11-15T02:31:36;7.90;99.90
46652;DHT22;32377;52.182;5.398;2022-11-15T02:34:28;8.00;99.90
46652;DHT22;32377;52.182;5.398;2022-11-15T02:37:16;8.10;99.90
46652;DHT22;32377;52.182;5.398;2022-11-15T02:43:00;8.10;99.90
46652;DHT22;32377;52.182;5.398;2022-11-15T02:45:51;8.20;99.90
46652;DHT22;32377;52.182;5.398;2022-11-15T02:48:19;8.20;99.90
46652;DHT22;32377;52.182;5.398;2022-11-15T02:50:47;8.20;99.90
46652;DHT22;32377;52.182;5.398;2022-11-15T02:53:14;8.20;99.90
46652;DHT22;32377;52.182;5.398;2022-11-15T02:55:45;8.20;99.90
46652;DHT22;32377;52.182;5.398;2022-11-15T03:01:01;8.30;99.90
46652;DHT22;32377;52.182;5.398;2022-11-15T03:04:25;8.30;99.90
46652;DHT22;32377;52.182;5.398;2022-11-15T03:06:57;8.40;99.90
46652;DHT22;32377;52.182;5.398;2022-11-15T03:09:32;8.30;99.90
46652;DHT22;32377;52.182;5.398;2022-11-15T03:12:07;8.40;99.90
46652;DHT22;32377;52.182;5.398;2022-11-15T03:14:37;8.40;99.90
46652;DHT22;32377;52.182;5.398;2022-11-15T03:19:57;8.50;99.90
46652;DHT22;32377;52.182;5.398;2022-11-15T03:22:26;8.50;99.90
46652;DHT22;32377;52.182;5.398;2022-11-15T03:24:55;8.50;99.90
46652;DHT22;32377;52.182;5.398;2022-11-15T03:27:26;8.60;99.90
46652;DHT22;32377;52.182;5.398;2022-11-15T03:29:58;8.60;99.90
46652;DHT22;32377;52.182;5.398;2022-11-15T03:32:30;8.60;99.90
46652;DHT22;32377;52.182;5.398;2022-11-15T03:35:13;8.60;99.90
46652;DHT22;32377;52.182;5.398;2022-11-15T03:38:05;8.60;99.90
46652;DHT22;32377;52.182;5.398;2022-11-15T03:40:39;8.70;99.90
46652;DHT22;32377;52.182;5.398;2022-11-15T03:45:51;8.70;99.90
46652;DHT22;32377;52.182;5.398;2022-11-15T03:48:22;8.70;99.90
46652;DHT22;32377;52.182;5.398;2022-11-15T03:50:49;8.80;99.90
46652;DHT22;32377;52.182;5.398;2022-11-15T03:53:17;8.80;99.90
46652;DHT22;32377;52.182;5.398;2022-11-15T03:55:43;8.80;99.90
46652;DHT22;32377;52.182;5.398;2022-11-15T03:58:08;8.90;99.90
46652;DHT22;32377;52.182;5.398;2022-11-15T04:00:34;8.90;99.90
46652;DHT22;32377;52.182;5.398;2022-11-15T04:03:00;8.90;99.90
46652;DHT22;32377;52.182;5.398;2022-11-15T04:05:25;8.90;99.90
46652;DHT22;32377;52.182;5.398;2022-11-15T04:07:51;9.00;99.90
46652;DHT22;32377;52.182;5.398;2022-11-15T04:10:17;9.00;99.90
46652;DHT22;32377;52.182;5.398;2022-11-15T04:12:44;9.10;99.90
46652;DHT22;32377;52.182;5.398;2022-11-15T04:15:15;9.10;99.90
46652;DHT22;32377;52.182;5.398;2022-11-15T04:17:44;9.10;99.90
46652;DHT22;32377;52.182;5.398;2022-11-15T04:20:24;9.10;99.90
46652;DHT22;32377;52.182;5.398;2022-11-15T04:26:00;9.20;99.90
46652;DHT22;32377;52.182;5.398;2022-11-15T04:28:26;9.30;99.90
46652;DHT22;32377;52.182;5.398;2022-11-15T04:30:52;9.20;99.90
46652;DHT22;32377;52.182;5.398;2022-11-15T04:33:18;9.30;99.90
46652;DHT22;32377;52.182;5.398;2022-11-15T04:35:43;9.20;99.90
46652;DHT22;32377;52.182;5.398;2022-11-15T04:38:29;9.20;99.90
46652;DHT22;32377;52.182;5.398;2022-11-15T04:40:55;9.20;99.90
46652;DHT22;32377;52.182;5.398;2022-11-15T04:43:20;9.20;99.90
46652;DHT22;32377;52.182;5.398;2022-11-15T04:45:46;9.30;99.90
46652;DHT22;32377;52.182;5.398;2022-11-15T04:48:11;9.30;99.90
46652;DHT22;32377;52.182;5.398;2022-11-15T04:50:37;9.30;99.90
46652;DHT22;32377;52.182;5.398;2022-11-15T04:53:02;9.30;99.90
46652;DHT22;32377;52.182;5.398;2022-11-15T04:55:28;9.30;99.90
46652;DHT22;32377;52.182;5.398;2022-11-15T04:58:01;9.40;99.90
46652;DHT22;32377;52.182;5.398;2022-11-15T05:00:28;9.40;99.90
46652;DHT22;32377;52.182;5.398;2022-11-15T05:02:54;9.40;99.90
46652;DHT22;32377;52.182;5.398;2022-11-15T05:05:38;9.40;99.90
46652;DHT22;32377;52.182;5.398;2022-11-15T05:08:04;9.40;99.90
46652;DHT22;32377;52.182;5.398;2022-11-15T05:10:30;9.40;99.90
46652;DHT22;32377;52.182;5.398;2022-11-15T05:12:56;9.50;99.90
46652;DHT22;32377;52.182;5.398;2022-11-15T05:15:21;9.50;99.90
46652;DHT22;32377;52.182;5.398;2022-11-15T05:17:47;9.50;99.90
46652;DHT22;32377;52.182;5.398;2022-11-15T05:20:13;9.50;99.90
46652;DHT22;32377;52.182;5.398;2022-11-15T05:22:39;9.50;99.90
46652;DHT22;32377;52.182;5.398;2022-11-15T05:25:05;9.50;99.90
46652;DHT22;32377;52.182;5.398;2022-11-15T05:27:32;9.50;99.90
46652;DHT22;32377;52.182;5.398;2022-11-15T05:29:57;9.50;99.90
46652;DHT22;32377;52.182;5.398;2022-11-15T05:32:23;9.50;99.90
46652;DHT22;32377;52.182;5.398;2022-11-15T05:34:49;9.50;99.90
46652;DHT22;32377;52.182;5.398;2022-11-15T05:37:16;9.50;99.90
46652;DHT22;32377;52.182;5.398;2022-11-15T05:39:42;9.40;99.90
46652;DHT22;32377;52.182;5.398;2022-11-15T05:42:15;9.50;99.90
46652;DHT22;32377;52.182;5.398;2022-11-15T05:44:44;9.50;99.90
46652;DHT22;32377;52.182;5.398;2022-11-15T05:47:20;9.50;99.90
46652;DHT22;32377;52.182;5.398;2022-11-15T05:49:48;9.50;99.90
46652;DHT22;32377;52.182;5.398;2022-11-15T05:52:19;9.60;99.90
46652;DHT22;32377;52.182;5.398;2022-11-15T05:54:45;9.60;99.90
46652;DHT22;32377;52.182;5.398;2022-11-15T05:57:11;9.60;99.90
46652;DHT22;32377;52.182;5.398;2022-11-15T05:59:37;9.60;99.90
46652;DHT22;32377;52.182;5.398;2022-11-15T06:02:03;9.60;99.90
46652;DHT22;32377;52.182;5.398;2022-11-15T06:04:29;9.60;99.90
46652;DHT22;32377;52.182;5.398;2022-11-15T06:06:54;9.70;99.90
46652;DHT22;32377;52.182;5.398;2022-11-15T06:09:20;9.70;99.90
46652;DHT22;32377;52.182;5.398;2022-11-15T06:11:45;9.70;99.90
46652;DHT22;32377;52.182;5.398;2022-11-15T06:14:11;9.70;99.90
46652;DHT22;32377;52.182;5.398;2022-11-15T06:16:37;9.70;99.90
46652;DHT22;32377;52.182;5.398;2022-11-15T06:19:02;9.70;99.90
46652;DHT22;32377;52.182;5.398;2022-11-15T06:21:28;9.80;99.90
46652;DHT22;32377;52.182;5.398;2022-11-15T06:23:54;9.90;99.90
46652;DHT22;32377;52.182;5.398;2022-11-15T06:26:20;9.90;99.90
46652;DHT22;32377;52.182;5.398;2022-11-15T06:28:45;9.90;99.90
46652;DHT22;32377;52.182;5.398;2022-11-15T06:31:11;9.90;99.90
46652;DHT22;32377;52.182;5.398;2022-11-15T06:33:38;9.90;99.90
46652;DHT22;32377;52.182;5.398;2022-11-15T06:36:09;10.00;99.90
46652;DHT22;32377;52.182;5.398;2022-11-15T06:38:36;10.00;99.90
46652;DHT22;32377;52.182;5.398;2022-11-15T06:41:07;10.00;99.90
46652;DHT22;32377;52.182;5.398;2022-11-15T06:43:33;10.00;99.90
46652;DHT22;32377;52.182;5.398;2022-11-15T06:46:00;10.00;99.90
46652;DHT22;32377;52.182;5.398;2022-11-15T06:48:27;10.00;99.90
46652;DHT22;32377;52.182;5.398;2022-11-15T06:50:54;10.00;99.90
46652;DHT22;32377;52.182;5.398;2022-11-15T06:53:20;10.10;99.90
46652;DHT22;32377;52.182;5.398;2022-11-15T06:55:45;10.00;99.90
46652;DHT22;32377;52.182;5.398;2022-11-15T06:58:11;10.00;99.90
46652;DHT22;32377;52.182;5.398;2022-11-15T07:00:37;10.00;99.90
46652;DHT22;32377;52.182;5.398;2022-11-15T07:03:03;9.90;99.90
46652;DHT22;32377;52.182;5.398;2022-11-15T07:05:29;9.90;99.90
46652;DHT22;32377;52.182;5.398;2022-11-15T07:07:56;10.00;99.90
46652;DHT22;32377;52.182;5.398;2022-11-15T07:10:23;10.00;99.90
46652;DHT22;32377;52.182;5.398;2022-11-15T07:12:51;10.00;99.90
46652;DHT22;32377;52.182;5.398;2022-11-15T07:15:18;10.00;99.90
46652;DHT22;32377;52.182;5.398;2022-11-15T07:17:44;10.00;99.90
46652;DHT22;32377;52.182;5.398;2022-11-15T07:20:10;10.00;99.90
46652;DHT22;32377;52.182;5.398;2022-11-15T07:22:35;10.10;99.90
46652;DHT22;32377;52.182;5.398;2022-11-15T07:25:01;10.10;99.90
46652;DHT22;32377;52.182;5.398;2022-11-15T07:27:30;10.10;99.90
46652;DHT22;32377;52.182;5.398;2022-11-15T07:29:55;10.20;99.90
46652;DHT22;32377;52.182;5.398;2022-11-15T07:32:21;10.20;99.90
46652;DHT22;32377;52.182;5.398;2022-11-15T07:34:46;10.20;99.90
46652;DHT22;32377;52.182;5.398;2022-11-15T07:37:12;10.10;99.90
46652;DHT22;32377;52.182;5.398;2022-11-15T07:39:38;10.10;99.90
46652;DHT22;32377;52.182;5.398;2022-11-15T07:42:04;10.10;99.90
46652;DHT22;32377;52.182;5.398;2022-11-15T07:44:48;10.20;99.90
46652;DHT22;32377;52.182;5.398;2022-11-15T07:47:14;10.20;99.90
46652;DHT22;32377;52.182;5.398;2022-11-15T07:49:40;10.30;99.90
46652;DHT22;32377;52.182;5.398;2022-11-15T07:52:05;10.30;99.90
46652;DHT22;32377;52.182;5.398;2022-11-15T07:54:31;10.30;99.90
46652;DHT22;32377;52.182;5.398;2022-11-15T07:56:56;10.20;99.90
46652;DHT22;32377;52.182;5.398;2022-11-15T07:59:22;10.20;99.90
46652;DHT22;32377;52.182;5.398;2022-11-15T08:01:48;10.30;99.90
46652;DHT22;32377;52.182;5.398;2022-11-15T08:04:13;10.30;99.90
46652;DHT22;32377;52.182;5.398;2022-11-15T08:06:39;10.40;99.90
46652;DHT22;32377;52.182;5.398;2022-11-15T08:09:04;10.30;99.90
46652;DHT22;32377;52.182;5.398;2022-11-15T08:11:30;10.40;99.90
46652;DHT22;32377;52.182;5.398;2022-11-15T08:13:56;10.40;99.90
46652;DHT22;32377;52.182;5.398;2022-11-15T08:16:21;10.40;99.90
46652;DHT22;32377;52.182;5.398;2022-11-15T08:18:47;10.50;99.90
46652;DHT22;32377;52.182;5.398;2022-11-15T08:21:18;10.50;99.90
46652;DHT22;32377;52.182;5.398;2022-11-15T08:23:44;10.50;99.90
46652;DHT22;32377;52.182;5.398;2022-11-15T08:26:09;10.50;99.90
46652;DHT22;32377;52.182;5.398;2022-11-15T08:28:35;10.50;99.90
46652;DHT22;32377;52.182;5.398;2022-11-15T08:31:02;10.50;99.90
46652;DHT22;32377;52.182;5.398;2022-11-15T08:33:28;10.60;99.90
46652;DHT22;32377;52.182;5.398;2022-11-15T08:35:56;10.60;99.90
46652;DHT22;32377;52.182;5.398;2022-11-15T08:38:22;10.60;99.90
46652;DHT22;32377;52.182;5.398;2022-11-15T08:40:48;10.60;99.90
46652;DHT22;32377;52.182;5.398;2022-11-15T08:43:15;10.60;99.90
46652;DHT22;32377;52.182;5.398;2022-11-15T08:45:41;10.60;99.90
46652;DHT22;32377;52.182;5.398;2022-11-15T08:48:06;10.70;99.90
46652;DHT22;32377;52.182;5.398;2022-11-15T08:50:32;10.60;99.90
46652;DHT22;32377;52.182;5.398;2022-11-15T08:52:57;10.60;99.90
46652;DHT22;32377;52.182;5.398;2022-11-15T08:55:28;10.70;99.90
46652;DHT22;32377;52.182;5.398;2022-11-15T08:57:57;10.70;99.90
46652;DHT22;32377;52.182;5.398;2022-11-15T09:00:22;10.70;99.90
46652;DHT22;32377;52.182;5.398;2022-11-15T09:02:48;10.70;99.90
46652;DHT22;32377;52.182;5.398;2022-11-15T09:05:14;10.80;99.90
46652;DHT22;32377;52.182;5.398;2022-11-15T09:07:40;10.80;99.90
46652;DHT22;32377;52.182;5.398;2022-11-15T09:10:06;10.90;99.90
46652;DHT22;32377;52.182;5.398;2022-11-15T09:12:32;11.00;99.90
46652;DHT22;32377;52.182;5.398;2022-11-15T09:14:58;11.00;99.90
46652;DHT22;32377;52.182;5.398;2022-11-15T09:17:23;11.10;99.90
46652;DHT22;32377;52.182;5.398;2022-11-15T09:19:49;11.00;99.90
46652;DHT22;32377;52.182;5.398;2022-11-15T09:22:15;11.10;99.90
46652;DHT22;32377;52.182;5.398;2022-11-15T09:24:40;11.10;99.90
46652;DHT22;32377;52.182;5.398;2022-11-15T09:27:06;11.20;99.90
46652;DHT22;32377;52.182;5.398;2022-11-15T09:29:32;11.30;99.90
46652;DHT22;32377;52.182;5.398;2022-11-15T09:31:57;11.30;99.90
46652;DHT22;32377;52.182;5.398;2022-11-15T09:34:23;11.40;99.90
46652;DHT22;32377;52.182;5.398;2022-11-15T09:36:48;11.40;99.90
46652;DHT22;32377;52.182;5.398;2022-11-15T09:39:14;11.30;99.90
46652;DHT22;32377;52.182;5.398;2022-11-15T09:42:00;11.30;99.90
46652;DHT22;32377;52.182;5.398;2022-11-15T09:44:56;11.30;99.90
46652;DHT22;32377;52.182;5.398;2022-11-15T09:50:12;11.30;99.90
46652;DHT22;32377;52.182;5.398;2022-11-15T09:52:42;11.40;99.90
46652;DHT22;32377;52.182;5.398;2022-11-15T09:55:11;11.40;99.90
46652;DHT22;32377;52.182;5.398;2022-11-15T09:58:03;11.40;99.90
46652;DHT22;32377;52.182;5.398;2022-11-15T10:00:35;11.50;99.90
46652;DHT22;32377;52.182;5.398;2022-11-15T10:03:35;11.50;99.90
46652;DHT22;32377;52.182;5.398;2022-11-15T10:06:03;11.50;99.90
46652;DHT22;32377;52.182;5.398;2022-11-15T10:09:00;11.50;99.90
46652;DHT22;32377;52.182;5.398;2022-11-15T10:11:32;11.50;99.90
46652;DHT22;32377;52.182;5.398;2022-11-15T10:14:01;11.50;99.90
46652;DHT22;32377;52.182;5.398;2022-11-15T10:19:35;11.40;99.90
46652;DHT22;32377;52.182;5.398;2022-11-15T10:24:48;11.60;99.90
46652;DHT22;32377;52.182;5.398;2022-11-15T10:27:18;11.60;99.90
46652;DHT22;32377;52.182;5.398;2022-11-15T10:32:15;11.70;99.90
46652;DHT22;32377;52.182;5.398;2022-11-15T10:34:41;11.70;99.90
46652;DHT22;32377;52.182;5.398;2022-11-15T10:37:07;11.80;99.90
46652;DHT22;32377;52.182;5.398;2022-11-15T10:39:33;11.80;99.90
46652;DHT22;32377;52.182;5.398;2022-11-15T10:42:25;11.70;99.90
46652;DHT22;32377;52.182;5.398;2022-11-15T10:44:52;11.80;99.90
46652;DHT22;32377;52.182;5.398;2022-11-15T10:47:29;11.80;99.90
46652;DHT22;32377;52.182;5.398;2022-11-15T10:50:06;11.70;99.90
46652;DHT22;32377;52.182;5.398;2022-11-15T10:52:34;11.60;99.90
46652;DHT22;32377;52.182;5.398;2022-11-15T11:00:36;11.60;99.90
46652;DHT22;32377;52.182;5.398;2022-11-15T11:06:03;11.60;99.90
46652;DHT22;32377;52.182;5.398;2022-11-15T11:08:29;11.70;99.90
46652;DHT22;32377;52.182;5.398;2022-11-15T11:10:57;11.70;99.90
46652;DHT22;32377;52.182;5.398;2022-11-15T11:13:28;11.80;99.90
46652;DHT22;32377;52.182;5.398;2022-11-15T11:21:41;12.00;99.90
46652;DHT22;32377;52.182;5.398;2022-11-15T11:27:13;12.20;99.90
46652;DHT22;32377;52.182;5.398;2022-11-15T11:32:23;12.10;99.90
46652;DHT22;32377;52.182;5.398;2022-11-15T11:35:17;12.00;99.90
46652;DHT22;32377;52.182;5.398;2022-11-15T11:40:36;12.20;99.90
46652;DHT22;32377;52.182;5.398;2022-11-15T11:43:19;12.20;99.90
46652;DHT22;32377;52.182;5.398;2022-11-15T11:48:41;12.30;99.90
46652;DHT22;32377;52.182;5.398;2022-11-15T11:51:58;12.20;99.90
46652;DHT22;32377;52.182;5.398;2022-11-15T11:54:28;12.20;99.90
46652;DHT22;32377;52.182;5.398;2022-11-15T11:56:58;12.10;99.90
46652;DHT22;32377;52.182;5.398;2022-11-15T11:59:50;12.10;99.90
46652;DHT22;32377;52.182;5.398;2022-11-15T12:02:40;12.10;99.90
46652;DHT22;32377;52.182;5.398;2022-11-15T12:05:32;12.10;99.90
46652;DHT22;32377;52.182;5.398;2022-11-15T12:08:56;12.20;99.90
46652;DHT22;32377;52.182;5.398;2022-11-15T12:11:14;12.30;99.90
46652;DHT22;32377;52.182;5.398;2022-11-15T12:13:42;12.30;99.90
46652;DHT22;32377;52.182;5.398;2022-11-15T12:16:13;12.30;99.90
46652;DHT22;32377;52.182;5.398;2022-11-15T12:18:46;12.30;99.90
46652;DHT22;32377;52.182;5.398;2022-11-15T12:24:42;12.30;99.90
46652;DHT22;32377;52.182;5.398;2022-11-15T12:30:18;12.30;99.90
46652;DHT22;32377;52.182;5.398;2022-11-15T12:33:00;12.30;99.90
46652;DHT22;32377;52.182;5.398;2022-11-15T12:35:39;12.30;99.90
46652;DHT22;32377;52.182;5.398;2022-11-15T12:38:09;12.30;99.90
46652;DHT22;32377;52.182;5.398;2022-11-15T12:41:12;12.30;99.90
46652;DHT22;32377;52.182;5.398;2022-11-15T12:43:42;12.30;99.90
46652;DHT22;32377;52.182;5.398;2022-11-15T12:49:07;12.40;99.90
46652;DHT22;32377;52.182;5.398;2022-11-15T13:02:31;12.40;99.90
46652;DHT22;32377;52.182;5.398;2022-11-15T13:17:47;12.40;99.90
46652;DHT22;32377;52.182;5.398;2022-11-15T13:22:43;12.40;99.90
46652;DHT22;32377;52.182;5.398;2022-11-15T13:25:46;12.30;99.90
46652;DHT22;32377;52.182;5.398;2022-11-15T13:30:41;12.30;99.90
46652;DHT22;32377;52.182;5.398;2022-11-15T13:33:35;12.30;99.90
46652;DHT22;32377;52.182;5.398;2022-11-15T13:36:18;12.30;99.90
46652;DHT22;32377;52.182;5.398;2022-11-15T13:38:44;12.20;99.90
46652;DHT22;32377;52.182;5.398;2022-11-15T13:41:25;12.10;99.90
46652;DHT22;32377;52.182;5.398;2022-11-15T13:43:52;12.10;99.90
46652;DHT22;32377;52.182;5.398;2022-11-15T13:46:24;12.00;99.90
46652;DHT22;32377;52.182;5.398;2022-11-15T13:49:00;12.00;99.90
46652;DHT22;32377;52.182;5.398;2022-11-15T13:51:47;11.90;99.90
46652;DHT22;32377;52.182;5.398;2022-11-15T13:54:34;11.90;99.90
46652;DHT22;32377;52.182;5.398;2022-11-15T13:57:01;11.80;99.90
46652;DHT22;32377;52.182;5.398;2022-11-15T13:59:31;11.80;99.90
46652;DHT22;32377;52.182;5.398;2022-11-15T14:02:11;11.70;99.90
46652;DHT22;32377;52.182;5.398;2022-11-15T14:04:42;11.70;99.90
46652;DHT22;32377;52.182;5.398;2022-11-15T14:07:20;11.70;99.90
46652;DHT22;32377;52.182;5.398;2022-11-15T14:09:46;11.70;99.90
46652;DHT22;32377;52.182;5.398;2022-11-15T14:12:33;11.60;99.90
46652;DHT22;32377;52.182;5.398;2022-11-15T14:17:44;11.60;99.90
46652;DHT22;32377;52.182;5.398;2022-11-15T14:20:33;11.50;99.90
46652;DHT22;32377;52.182;5.398;2022-11-15T14:23:01;11.60;99.90
46652;DHT22;32377;52.182;5.398;2022-11-15T14:25:34;11.50;99.90
46652;DHT22;32377;52.182;5.398;2022-11-15T14:28:10;11.50;99.90
46652;DHT22;32377;52.182;5.398;2022-11-15T14:30:36;11.50;99.90
46652;DHT22;32377;52.182;5.398;2022-11-15T14:33:25;11.50;99.90
46652;DHT22;32377;52.182;5.398;2022-11-15T14:35:54;11.60;99.90
46652;DHT22;32377;52.182;5.398;2022-11-15T14:38:21;11.60;99.90
46652;DHT22;32377;52.182;5.398;2022-11-15T14:40:48;11.60;99.90
46652;DHT22;32377;52.182;5.398;2022-11-15T14:43:14;11.70;99.90
46652;DHT22;32377;52.182;5.398;2022-11-15T14:45:40;11.60;99.90
46652;DHT22;32377;52.182;5.398;2022-11-15T14:48:06;11.60;99.90
46652;DHT22;32377;52.182;5.398;2022-11-15T14:50:33;11.60;99.90
46652;DHT22;32377;52.182;5.398;2022-11-15T14:52:59;11.60;99.90
46652;DHT22;32377;52.182;5.398;2022-11-15T14:55:27;11.60;99.90
46652;DHT22;32377;52.182;5.398;2022-11-15T14:57:54;11.70;99.90
46652;DHT22;32377;52.182;5.398;2022-11-15T15:00:20;11.70;99.90
46652;DHT22;32377;52.182;5.398;2022-11-15T15:02:48;11.60;99.90
46652;DHT22;32377;52.182;5.398;2022-11-15T15:05:19;11.60;99.90
46652;DHT22;32377;52.182;5.398;2022-11-15T15:07:46;11.70;99.90
46652;DHT22;32377;52.182;5.398;2022-11-15T15:10:13;11.60;99.90
46652;DHT22;32377;52.182;5.398;2022-11-15T15:12:38;11.70;99.90
46652;DHT22;32377;52.182;5.398;2022-11-15T15:15:05;11.60;99.90
46652;DHT22;32377;52.182;5.398;2022-11-15T15:17:31;11.60;99.90
46652;DHT22;32377;52.182;5.398;2022-11-15T15:19:56;11.60;99.90
46652;DHT22;32377;52.182;5.398;2022-11-15T15:22:22;11.60;99.90
46652;DHT22;32377;52.182;5.398;2022-11-15T15:24:51;11.60;99.90
46652;DHT22;32377;52.182;5.398;2022-11-15T15:27:17;11.60;99.90
46652;DHT22;32377;52.182;5.398;2022-11-15T15:29:42;11.60;99.90
46652;DHT22;32377;52.182;5.398;2022-11-15T15:32:09;11.60;99.90
46652;DHT22;32377;52.182;5.398;2022-11-15T15:34:35;11.70;99.90
46652;DHT22;32377;52.182;5.398;2022-11-15T15:37:25;11.60;99.90
46652;DHT22;32377;52.182;5.398;2022-11-15T15:39:52;11.60;99.90
46652;DHT22;32377;52.182;5.398;2022-11-15T15:42:19;11.50;99.90
46652;DHT22;32377;52.182;5.398;2022-11-15T15:44:45;11.50;99.90
46652;DHT22;32377;52.182;5.398;2022-11-15T15:47:16;11.60;99.90
46652;DHT22;32377;52.182;5.398;2022-11-15T15:49:42;11.60;99.90
46652;DHT22;32377;52.182;5.398;2022-11-15T15:52:08;11.60;99.90
46652;DHT22;32377;52.182;5.398;2022-11-15T15:54:33;11.60;99.90
46652;DHT22;32377;52.182;5.398;2022-11-15T15:56:59;11.60;99.90
46652;DHT22;32377;52.182;5.398;2022-11-15T15:59:24;11.60;99.90
46652;DHT22;32377;52.182;5.398;2022-11-15T16:01:50;11.50;99.90
46652;DHT22;32377;52.182;5.398;2022-11-15T16:04:16;11.60;99.90
46652;DHT22;32377;52.182;5.398;2022-11-15T16:06:43;11.50;99.90
46652;DHT22;32377;52.182;5.398;2022-11-15T16:09:17;11.50;99.90
46652;DHT22;32377;52.182;5.398;2022-11-15T16:11:46;11.60;99.90
46652;DHT22;32377;52.182;5.398;2022-11-15T16:14:12;11.60;99.90
46652;DHT22;32377;52.182;5.398;2022-11-15T16:16:38;11.60;99.90
46652;DHT22;32377;52.182;5.398;2022-11-15T16:19:04;11.50;99.90
46652;DHT22;32377;52.182;5.398;2022-11-15T16:21:30;11.60;99.90
46652;DHT22;32377;52.182;5.398;2022-11-15T16:23:55;11.60;99.90
46652;DHT22;32377;52.182;5.398;2022-11-15T16:26:22;11.60;99.90
46652;DHT22;32377;52.182;5.398;2022-11-15T16:28:49;11.60;99.90
46652;DHT22;32377;52.182;5.398;2022-11-15T16:31:15;11.60;99.90
46652;DHT22;32377;52.182;5.398;2022-11-15T16:33:43;11.60;99.90
46652;DHT22;32377;52.182;5.398;2022-11-15T16:36:25;11.60;99.90
46652;DHT22;32377;52.182;5.398;2022-11-15T16:38:51;11.60;99.90
46652;DHT22;32377;52.182;5.398;2022-11-15T16:41:17;11.70;99.90
46652;DHT22;32377;52.182;5.398;2022-11-15T16:43:45;11.60;99.90
46652;DHT22;32377;52.182;5.398;2022-11-15T16:46:21;11.60;99.90
46652;DHT22;32377;52.182;5.398;2022-11-15T16:48:47;11.70;99.90
46652;DHT22;32377;52.182;5.398;2022-11-15T16:51:13;11.60;99.90
46652;DHT22;32377;52.182;5.398;2022-11-15T16:53:39;11.70;99.90
46652;DHT22;32377;52.182;5.398;2022-11-15T16:56:23;11.70;99.90
46652;DHT22;32377;52.182;5.398;2022-11-15T16:58:49;11.70;99.90
46652;DHT22;32377;52.182;5.398;2022-11-15T17:01:26;11.70;99.90
46652;DHT22;32377;52.182;5.398;2022-11-15T17:03:53;11.70;99.90
46652;DHT22;32377;52.182;5.398;2022-11-15T17:06:19;11.80;99.90
46652;DHT22;32377;52.182;5.398;2022-11-15T17:08:45;11.80;99.90
46652;DHT22;32377;52.182;5.398;2022-11-15T17:11:14;11.70;99.90
46652;DHT22;32377;52.182;5.398;2022-11-15T17:13:40;11.70;99.90
46652;DHT22;32377;52.182;5.398;2022-11-15T17:16:09;11.60;99.90
46652;DHT22;32377;52.182;5.398;2022-11-15T17:18:35;11.60;99.90
46652;DHT22;32377;52.182;5.398;2022-11-15T17:21:12;11.70;99.90
46652;DHT22;32377;52.182;5.398;2022-11-15T17:23:38;11.70;99.90
46652;DHT22;32377;52.182;5.398;2022-11-15T17:26:04;11.70;99.90
46652;DHT22;32377;52.182;5.398;2022-11-15T17:28:34;11.60;99.90
46652;DHT22;32377;52.182;5.398;2022-11-15T17:31:00;11.50;99.90
46652;DHT22;32377;52.182;5.398;2022-11-15T17:33:26;11.50;99.90
46652;DHT22;32377;52.182;5.398;2022-11-15T17:35:56;11.50;99.90